createdAt,value
2018-05-08T00:00:43.155Z,75.09
2018-05-08T00:01:52.638Z,74.9
2018-05-08T00:03:02.644Z,74.61
2018-05-08T00:04:12.655Z,74.8
2018-05-08T00:05:22.672Z,74.61
2018-05-08T00:06:32.684Z,74.04
2018-05-08T00:07:42.430Z,74.8
2018-05-08T00:08:52.574Z,74.9
2018-05-08T00:10:02.313Z,75.57
2018-05-08T00:11:12.331Z,75.76
2018-05-08T00:12:22.080Z,75.66
2018-05-08T00:13:32.092Z,76.14
2018-05-08T00:14:41.835Z,76.1
2018-05-08T00:15:51.587Z,76.48
2018-05-08T00:17:01.609Z,76.1
2018-05-08T00:18:11.629Z,76.81
2018-05-08T00:19:21.437Z,76.67
2018-05-08T00:20:31.463Z,76.86
2018-05-08T00:21:41.471Z,77.72
2018-05-08T00:22:51.482Z,77.72
2018-05-08T00:24:01.224Z,78.49
2018-05-08T00:25:11.237Z,78.39
2018-05-08T00:26:20.980Z,78.3
2018-05-08T00:27:30.994Z,79.15
2018-05-08T00:28:40.735Z,79.15
2018-05-08T00:29:50.750Z,79.82
2018-05-08T00:31:00.778Z,79.97
2018-05-08T00:32:10.522Z,80.35
2018-05-08T00:33:20.266Z,80.44
2018-05-08T00:34:30.278Z,80.73
2018-05-08T00:35:40.288Z,81.02
2018-05-08T00:36:49.770Z,81.59
2018-05-08T00:37:59.789Z,81.78
2018-05-08T00:39:09.339Z,82.17
2018-05-08T00:40:19.374Z,82.07
2018-05-08T00:41:29.120Z,82.07
2018-05-08T00:42:39.240Z,81.78
2018-05-08T00:43:49.258Z,81.78
2018-05-08T00:44:59.006Z,81.49
2018-05-08T00:46:08.755Z,80.83
2018-05-08T00:47:18.767Z,80.54
2018-05-08T00:48:28.778Z,81.4
2018-05-08T00:49:38.524Z,81.49
2018-05-08T00:50:47.999Z,81.4
2018-05-08T00:51:58.008Z,81.59
2018-05-08T00:53:08.013Z,81.4
2018-05-08T00:54:16.952Z,81.21
2018-05-08T00:55:26.427Z,80.92
2018-05-08T00:56:36.169Z,80.92
2018-05-08T00:57:46.185Z,80.92
2018-05-08T00:58:56.197Z,80.83
2018-05-08T01:00:05.942Z,81.3
2018-05-08T01:01:15.690Z,82.07
2018-05-08T01:02:24.905Z,82.26
2018-05-08T01:03:34.933Z,82.45
2018-05-08T01:04:44.940Z,82.45
2018-05-08T01:05:54.772Z,81.78
2018-05-08T01:07:04.795Z,81.97
2018-05-08T01:08:14.537Z,81.78
2018-05-08T01:09:24.014Z,81.78
2018-05-08T01:10:33.769Z,82.26
2018-05-08T01:11:43.900Z,82.83
2018-05-08T01:12:53.648Z,82.45
2018-05-08T01:14:03.121Z,82.35
2018-05-08T01:15:13.133Z,82.54
2018-05-08T01:16:23.142Z,82.92
2018-05-08T01:17:33.506Z,83.31
2018-05-08T01:18:43.250Z,83.12
2018-05-08T01:19:52.993Z,83.12
2018-05-08T01:21:02.736Z,83.4
2018-05-08T01:22:12.489Z,83.31
2018-05-08T01:23:22.507Z,83.12
2018-05-08T01:24:32.514Z,84.16
2018-05-08T01:25:42.527Z,83.59
2018-05-08T01:26:52.545Z,83.31
2018-05-08T01:28:02.023Z,83.02
2018-05-08T01:29:11.854Z,83.31
2018-05-08T01:30:21.857Z,83.21
2018-05-08T01:31:31.965Z,84.45
2018-05-08T01:32:42.227Z,83.69
2018-05-08T01:33:51.697Z,84.74
2018-05-08T01:35:01.709Z,83.78
2018-05-08T01:36:11.719Z,83.02
2018-05-08T01:37:21.468Z,83.31
2018-05-08T01:38:31.215Z,84.07
2018-05-08T01:39:40.698Z,84.83
2018-05-08T01:40:50.445Z,84.26
2018-05-08T01:42:00.470Z,84.16
2018-05-08T01:43:09.962Z,83.78
2018-05-08T01:44:19.803Z,84.16
2018-05-08T01:45:29.555Z,85.02
2018-05-08T01:46:39.030Z,84.64
2018-05-08T01:47:49.046Z,84.55
2018-05-08T01:48:59.060Z,85.12
2018-05-08T01:50:08.816Z,85.64
2018-05-08T01:51:18.832Z,86.32
2018-05-08T01:52:28.844Z,86.79
2018-05-08T01:53:38.871Z,86.51
2018-05-08T01:54:48.612Z,87.07
2018-05-08T01:55:58.629Z,86.51
2018-05-08T01:57:08.383Z,86.41
2018-05-08T01:58:18.489Z,87.07
2018-05-08T01:59:28.494Z,86.65
2018-05-08T02:00:38.238Z,86.88
2018-05-08T02:01:48.250Z,87.17
2018-05-08T02:02:58.259Z,87.03
2018-05-08T02:04:08.008Z,86.55
2018-05-08T02:05:17.753Z,87.51
2018-05-08T02:06:27.767Z,86.75
2018-05-08T02:07:37.780Z,86.46
2018-05-08T02:08:47.787Z,86.36
2018-05-08T02:09:57.799Z,86.27
2018-05-08T02:11:07.544Z,85.84
2018-05-08T02:12:17.571Z,85.84
2018-05-08T02:13:27.045Z,85.93
2018-05-08T02:14:37.054Z,85.64
2018-05-08T02:15:47.070Z,85.64
2018-05-08T02:16:56.815Z,86.6
2018-05-08T02:18:06.576Z,87.17
2018-05-08T02:19:16.314Z,87.74
2018-05-08T02:20:26.476Z,87.17
2018-05-08T02:21:36.754Z,87.07
2018-05-08T02:22:45.961Z,87.27
2018-05-08T02:23:56.053Z,87.17
2018-05-08T02:25:05.538Z,87.46
2018-05-08T02:26:15.016Z,87.27
2018-05-08T02:27:25.079Z,87.89
2018-05-08T02:28:34.613Z,87.03
2018-05-08T02:29:44.100Z,87.41
2018-05-08T02:30:54.111Z,87.32
2018-05-08T02:32:03.324Z,87.03
2018-05-08T02:33:12.905Z,87.79
2018-05-08T02:34:22.782Z,87.79
2018-05-08T02:35:32.839Z,87.6
2018-05-08T02:36:42.860Z,87.23
2018-05-08T02:37:52.603Z,87.51
2018-05-08T02:39:02.628Z,87.41
2018-05-08T02:40:12.385Z,87.41
2018-05-08T02:41:22.126Z,87.13
2018-05-08T02:42:32.153Z,87.23
2018-05-08T02:43:41.901Z,87.98
2018-05-08T02:44:51.378Z,87.98
2018-05-08T02:46:00.859Z,87.23
2018-05-08T02:47:10.610Z,87.32
2018-05-08T02:48:20.639Z,87.41
2018-05-08T02:49:30.132Z,87.79
2018-05-08T02:50:39.347Z,87.6
2018-05-08T02:51:49.107Z,87.03
2018-05-08T02:52:59.117Z,87.51
2018-05-08T02:54:08.865Z,88.08
2018-05-08T02:55:18.349Z,87.7
2018-05-08T02:56:28.384Z,87.6
2018-05-08T02:57:37.868Z,87.23
2018-05-08T02:58:47.625Z,87.98
2018-05-08T02:59:57.106Z,87.6
2018-05-08T03:03:39.559Z,87.89
2018-05-08T03:04:49.044Z,87.6
2018-05-08T03:05:59.062Z,87.79
2018-05-08T03:07:09.102Z,87.98
2018-05-08T03:08:19.118Z,87.98
2018-05-08T03:09:28.870Z,87.7
2018-05-08T03:10:38.345Z,88.18
2018-05-08T03:11:48.378Z,88.6
2018-05-08T03:12:58.137Z,87.89
2018-05-08T03:14:07.622Z,89.47
2018-05-08T03:15:17.372Z,89.18
2018-05-08T03:16:27.119Z,89.08
2018-05-08T03:17:36.594Z,88.6
2018-05-08T03:18:46.339Z,89.03
2018-05-08T03:19:56.347Z,89.03
2018-05-08T03:21:05.847Z,88.42
2018-05-08T03:22:15.939Z,89.37
2018-05-08T03:23:26.104Z,89.94
2018-05-08T03:24:35.575Z,89.94
2018-05-08T03:25:45.312Z,89.94
2018-05-08T03:26:55.055Z,89.37
2018-05-08T03:28:04.796Z,89.94
2018-05-08T03:29:14.546Z,90.13
2018-05-08T03:30:24.302Z,90.42
2018-05-08T03:31:34.057Z,90.22
2018-05-08T03:32:43.603Z,91.17
2018-05-08T03:33:53.346Z,91.27
2018-05-08T03:35:03.093Z,91.94
2018-05-08T03:36:12.858Z,92.41
2018-05-08T03:37:22.867Z,93.46
2018-05-08T03:38:32.875Z,93.55
2018-05-08T03:39:42.898Z,93.46
2018-05-08T03:40:52.642Z,92.89
2018-05-08T03:42:02.389Z,92.99
2018-05-08T03:43:12.427Z,92.89
2018-05-08T03:44:22.440Z,93.27
2018-05-08T03:45:31.920Z,93.74
2018-05-08T03:46:41.936Z,93.27
2018-05-08T03:47:51.977Z,92.7
2018-05-08T03:49:01.730Z,92.89
2018-05-08T03:50:11.471Z,92.89
2018-05-08T03:51:21.479Z,93.46
2018-05-08T03:52:31.513Z,93.18
2018-05-08T03:53:41.542Z,93.74
2018-05-08T03:54:51.553Z,94.79
2018-05-08T03:56:01.292Z,96.51
2018-05-08T03:57:11.034Z,96.03
2018-05-08T03:58:21.159Z,96.22
2018-05-08T03:59:31.188Z,96.31
2018-05-08T04:00:41.197Z,96.79
2018-05-08T04:01:51.207Z,96.22
2018-05-08T04:03:01.223Z,96.12
2018-05-08T04:04:11.242Z,95.94
2018-05-08T04:05:21.263Z,95.46
2018-05-08T04:06:31.270Z,94.98
2018-05-08T04:07:41.283Z,94.7
2018-05-08T04:08:51.023Z,94.7
2018-05-08T04:10:01.046Z,93.94
2018-05-08T04:11:10.260Z,93.65
2018-05-08T04:12:19.737Z,94.13
2018-05-08T04:13:29.216Z,93.46
2018-05-08T04:14:38.961Z,93.08
2018-05-08T04:15:48.701Z,93.27
2018-05-08T04:16:58.739Z,92.6
2018-05-08T04:18:08.761Z,93.08
2018-05-08T04:19:18.773Z,92.7
2018-05-08T04:20:28.257Z,93.46
2018-05-08T04:21:38.268Z,93.46
2018-05-08T04:22:48.282Z,93.08
2018-05-08T04:23:58.306Z,92.6
2018-05-08T04:25:08.369Z,92.6
2018-05-08T04:26:17.840Z,92.7
2018-05-08T04:27:27.581Z,93.41
2018-05-08T04:28:37.678Z,92.74
2018-05-08T04:29:47.699Z,92.79
2018-05-08T04:30:57.708Z,92.74
2018-05-08T04:32:07.728Z,92.74
2018-05-08T04:33:17.745Z,92.36
2018-05-08T04:34:27.879Z,92.27
2018-05-08T04:35:37.894Z,92.18
2018-05-08T04:36:47.908Z,92.65
2018-05-08T04:37:57.653Z,92.18
2018-05-08T04:39:06.866Z,91.99
2018-05-08T04:40:16.609Z,91.99
2018-05-08T04:41:26.629Z,92.55
2018-05-08T04:42:36.639Z,92.98
2018-05-08T04:43:46.388Z,92.5
2018-05-08T04:44:56.130Z,93.17
2018-05-08T04:46:05.880Z,93.37
2018-05-08T04:47:15.888Z,92.79
2018-05-08T04:48:26.065Z,92.03
2018-05-08T04:49:35.815Z,92.03
2018-05-08T04:50:45.558Z,92.22
2018-05-08T04:51:55.574Z,91.6
2018-05-08T04:53:05.323Z,92.03
2018-05-08T04:54:15.071Z,91.31
2018-05-08T04:55:24.815Z,91.5
2018-05-08T04:56:34.822Z,91.5
2018-05-08T04:57:44.598Z,91.69
2018-05-08T04:58:54.348Z,90.93
2018-05-08T05:00:03.819Z,90.45
2018-05-08T05:01:13.845Z,90.84
2018-05-08T05:02:23.852Z,90.26
2018-05-08T05:03:33.868Z,91.13
2018-05-08T05:04:43.884Z,90.64
2018-05-08T05:05:53.897Z,90.08
2018-05-08T05:07:04.072Z,90.84
2018-05-08T05:08:13.631Z,90.84
2018-05-08T05:09:23.151Z,89.79
2018-05-08T05:10:32.640Z,89.69
2018-05-08T05:11:42.656Z,89.12
2018-05-08T05:12:52.128Z,87.98
2018-05-08T05:14:01.921Z,88.21
2018-05-08T05:15:11.672Z,88.31
2018-05-08T05:16:21.147Z,87.74
2018-05-08T05:17:31.165Z,87.45
2018-05-08T05:18:40.911Z,87.54
2018-05-08T05:19:50.398Z,86.88
2018-05-08T05:21:00.416Z,87.07
2018-05-08T05:22:09.899Z,86.49
2018-05-08T05:23:20.015Z,86.59
2018-05-08T05:24:30.092Z,85.93
2018-05-08T05:25:40.411Z,85.45
2018-05-08T05:26:49.885Z,85.54
2018-05-08T05:27:59.627Z,85.16
2018-05-08T05:29:09.211Z,84.88
2018-05-08T05:30:19.233Z,84.49
2018-05-08T05:31:28.980Z,83.44
2018-05-08T05:32:38.197Z,83.35
2018-05-08T05:33:47.947Z,83.35
2018-05-08T05:34:57.688Z,82.97
2018-05-08T05:36:07.700Z,83.73
2018-05-08T05:37:17.173Z,84.88
2018-05-08T05:38:26.650Z,85.41
2018-05-08T05:39:36.407Z,85.69
2018-05-08T05:40:46.158Z,86.07
2018-05-08T05:41:55.959Z,85.41
2018-05-08T05:43:05.716Z,85.41
2018-05-08T05:44:15.213Z,85.78
2018-05-08T05:45:25.231Z,85.6
2018-05-08T05:46:34.975Z,85.02
2018-05-08T05:47:44.718Z,85.6
2018-05-08T05:48:54.463Z,85.12
2018-05-08T05:50:04.208Z,85.21
2018-05-08T05:51:14.259Z,85.97
2018-05-08T05:52:24.014Z,85.6
2018-05-08T05:53:34.036Z,85.6
2018-05-08T05:54:44.133Z,85.21
2018-05-08T05:55:54.147Z,85.02
2018-05-08T05:57:03.895Z,85.97
2018-05-08T05:58:13.375Z,85.97
2018-05-08T05:59:23.396Z,86.36
2018-05-08T06:00:33.404Z,86.55
2018-05-08T06:01:43.415Z,86.74
2018-05-08T06:02:53.157Z,86.45
2018-05-08T06:04:03.256Z,85.97
2018-05-08T06:05:13.270Z,86.07
2018-05-08T06:06:23.419Z,86.3
2018-05-08T06:07:33.407Z,86.02
2018-05-08T06:08:42.884Z,86.3
2018-05-08T06:09:52.357Z,85.83
2018-05-08T06:11:02.371Z,85.73
2018-05-08T06:12:12.398Z,86.21
2018-05-08T06:13:22.149Z,85.25
2018-05-08T06:14:31.896Z,85.93
2018-05-08T06:15:41.904Z,85.06
2018-05-08T06:16:51.653Z,85.54
2018-05-08T06:18:01.400Z,85.35
2018-05-08T06:19:11.413Z,85.45
2018-05-08T06:20:21.212Z,85.73
2018-05-08T06:21:31.233Z,86.11
2018-05-08T06:22:41.051Z,86.59
2018-05-08T06:23:51.062Z,88.12
2018-05-08T06:25:00.808Z,88.12
2018-05-08T06:26:10.841Z,87.74
2018-05-08T06:27:20.374Z,88.21
2018-05-08T06:28:29.655Z,88.69
2018-05-08T06:29:39.603Z,87.74
2018-05-08T06:30:49.346Z,87.69
2018-05-08T06:31:59.389Z,87.21
2018-05-08T06:33:08.867Z,87.16
2018-05-08T06:34:19.120Z,87.26
2018-05-08T06:35:28.754Z,86.4
2018-05-08T06:36:38.817Z,86.3
2018-05-08T06:37:48.834Z,86.69
2018-05-08T06:38:58.959Z,86.3
2018-05-08T06:40:08.870Z,86.49
2018-05-08T06:41:18.719Z,86.21
2018-05-08T06:42:28.727Z,86.21
2018-05-08T06:43:38.204Z,86.11
2018-05-08T06:44:48.361Z,86.21
2018-05-08T06:45:57.836Z,86.98
2018-05-08T06:47:07.575Z,86.73
2018-05-08T06:48:17.352Z,86.49
2018-05-08T06:49:27.377Z,86.69
2018-05-08T06:50:37.505Z,86.49
2018-05-08T06:51:47.516Z,85.87
2018-05-08T06:52:57.273Z,86.06
2018-05-08T06:54:07.286Z,86.35
2018-05-08T06:55:17.397Z,85.97
2018-05-08T06:56:26.877Z,85.68
2018-05-08T06:57:36.887Z,85.58
2018-05-08T06:58:46.645Z,85.01
2018-05-08T06:59:56.390Z,85.05
2018-05-08T07:01:06.145Z,85.39
2018-05-08T07:02:16.169Z,85.11
2018-05-08T07:03:26.191Z,84.48
2018-05-08T07:04:35.664Z,84.25
2018-05-08T07:05:45.687Z,84.39
2018-05-08T07:06:55.714Z,83.81
2018-05-08T07:08:05.732Z,84
2018-05-08T07:09:15.523Z,82.95
2018-05-08T07:10:24.979Z,82.67
2018-05-08T07:11:34.991Z,84.1
2018-05-08T07:12:44.740Z,84
2018-05-08T07:13:54.763Z,84.96
2018-05-08T07:15:03.980Z,85.34
2018-05-08T07:16:13.980Z,85.72
2018-05-08T07:17:24.319Z,84.77
2018-05-08T07:18:34.346Z,85.25
2018-05-08T07:19:44.140Z,85.15
2018-05-08T07:20:53.890Z,84.96
2018-05-08T07:22:03.907Z,84.96
2018-05-08T07:23:13.385Z,84
2018-05-08T07:24:23.139Z,84.33
2018-05-08T07:25:33.150Z,83.18
2018-05-08T07:26:42.633Z,82.52
2018-05-08T07:27:52.110Z,82.23
2018-05-08T07:29:02.126Z,82.52
2018-05-08T07:30:11.699Z,81.7
2018-05-08T07:31:21.723Z,80.84
2018-05-08T07:32:31.210Z,80.55
2018-05-08T07:33:41.223Z,79.93
2018-05-08T07:34:51.248Z,79.35
2018-05-08T07:36:00.880Z,79.93
2018-05-08T07:37:10.823Z,79.54
2018-05-08T07:38:20.551Z,79.06
2018-05-08T07:39:30.383Z,78.39
2018-05-08T07:40:40.473Z,78.53
2018-05-08T07:41:50.488Z,78.63
2018-05-08T07:43:00.807Z,78.43
2018-05-08T07:44:10.304Z,78.34
2018-05-08T07:45:20.092Z,78.43
2018-05-08T07:46:30.239Z,77.95
2018-05-08T07:47:40.265Z,78.14
2018-05-08T07:48:49.743Z,77.57
2018-05-08T07:49:59.756Z,77.7
2018-05-08T07:51:09.769Z,76.84
2018-05-08T07:52:19.789Z,76.94
2018-05-08T07:53:29.802Z,76.18
2018-05-08T07:54:39.865Z,76.46
2018-05-08T07:55:49.877Z,76.27
2018-05-08T07:56:59.888Z,76.18
2018-05-08T07:58:09.635Z,76.46
2018-05-08T07:59:19.645Z,76.37
2018-05-08T08:00:29.673Z,76.6
2018-05-08T08:01:39.699Z,76.46
2018-05-08T08:02:49.440Z,76.18
2018-05-08T08:03:59.567Z,75.54
2018-05-08T08:05:09.061Z,75.45
2018-05-08T08:06:19.086Z,75.83
2018-05-08T08:07:28.901Z,75.73
2018-05-08T08:08:39.259Z,75.26
2018-05-08T08:09:48.748Z,74.77
2018-05-08T08:10:58.242Z,74.97
2018-05-08T08:12:07.986Z,75.07
2018-05-08T08:13:17.202Z,74.77
2018-05-08T08:14:26.943Z,74.77
2018-05-08T08:15:36.425Z,74.87
2018-05-08T08:16:46.170Z,75.16
2018-05-08T08:17:55.665Z,74.33
2018-05-08T08:19:05.428Z,74.24
2018-05-08T08:20:15.177Z,74.24
2018-05-08T08:21:24.927Z,74.24
2018-05-08T08:22:34.687Z,73.86
2018-05-08T08:23:44.251Z,73.86
2018-05-08T08:24:54.596Z,74.43
2018-05-08T08:26:03.812Z,74.33
2018-05-08T08:27:13.837Z,73.09
2018-05-08T08:28:23.588Z,73.38
2018-05-08T08:29:33.709Z,73.19
2018-05-08T08:30:43.639Z,73.66
2018-05-08T08:31:53.660Z,73.28
2018-05-08T08:33:03.411Z,73.76
2018-05-08T08:34:12.897Z,73.38
2018-05-08T08:35:22.751Z,73.66
2018-05-08T08:36:32.770Z,73.19
2018-05-08T08:37:42.525Z,73.28
2018-05-08T08:38:52.536Z,73.95
2018-05-08T08:40:02.549Z,73.57
2018-05-08T08:41:12.299Z,73.19
2018-05-08T08:42:22.430Z,73.09
2018-05-08T08:43:32.443Z,72.42
2018-05-08T08:44:41.924Z,72.71
2018-05-08T08:45:51.672Z,73.51
2018-05-08T08:47:00.890Z,73.32
2018-05-08T08:48:10.636Z,72.55
2018-05-08T08:49:20.116Z,72.94
2018-05-08T08:50:30.135Z,73.03
2018-05-08T08:51:40.157Z,72.84
2018-05-08T08:52:49.933Z,72.17
2018-05-08T08:53:59.678Z,72.39
2018-05-08T08:55:09.704Z,72.01
2018-05-08T08:56:19.743Z,71.53
2018-05-08T08:57:29.762Z,71.44
2018-05-08T08:58:39.244Z,71.19
2018-05-08T08:59:48.725Z,70.42
2018-05-08T09:00:58.744Z,69.93
2018-05-08T09:02:08.759Z,69.74
2018-05-08T09:03:18.508Z,69.84
2018-05-08T09:04:28.529Z,69.93
2018-05-08T09:05:38.289Z,69.84
2018-05-08T09:06:47.504Z,69.59
2018-05-08T09:07:56.730Z,69.87
2018-05-08T09:09:06.492Z,69.59
2018-05-08T09:10:16.243Z,68.82
2018-05-08T09:11:26.391Z,69.49
2018-05-08T09:12:36.136Z,68.44
2018-05-08T09:13:45.351Z,67.47
2018-05-08T09:14:55.378Z,67.57
2018-05-08T09:16:05.396Z,67.8
2018-05-08T09:17:15.145Z,67.51
2018-05-08T09:18:24.895Z,67.41
2018-05-08T09:19:34.908Z,67.8
2018-05-08T09:20:44.141Z,67.32
2018-05-08T09:21:54.155Z,67.22
2018-05-08T09:23:04.182Z,66.93
2018-05-08T09:24:14.205Z,67.03
2018-05-08T09:25:23.683Z,66.74
2018-05-08T09:26:33.459Z,67.51
2018-05-08T09:27:43.575Z,67.22
2018-05-08T09:28:53.657Z,66.87
2018-05-08T09:30:03.405Z,66.74
2018-05-08T09:31:13.153Z,66.58
2018-05-08T09:32:23.169Z,66.77
2018-05-08T09:33:32.654Z,66.39
2018-05-08T09:34:42.401Z,66.2
2018-05-08T09:35:52.420Z,66.1
2018-05-08T09:37:02.434Z,65.81
2018-05-08T09:38:12.463Z,65.53
2018-05-08T09:39:22.216Z,65.05
2018-05-08T09:40:32.236Z,64.95
2018-05-08T09:41:42.248Z,65.17
2018-05-08T09:42:51.730Z,65.56
2018-05-08T09:44:01.506Z,65.46
2018-05-08T09:45:11.633Z,65.17
2018-05-08T09:46:21.401Z,65.37
2018-05-08T09:47:31.182Z,64.22
2018-05-08T09:48:41.201Z,64.89
2018-05-08T09:49:51.381Z,64.34
2018-05-08T09:51:01.399Z,64.6
2018-05-08T09:52:11.152Z,64.43
2018-05-08T09:53:20.649Z,64.25
2018-05-08T09:54:30.409Z,63.76
2018-05-08T09:55:40.447Z,64.05
2018-05-08T09:56:50.204Z,63.86
2018-05-08T09:58:00.237Z,64.53
2018-05-08T09:59:10.263Z,63.28
2018-05-08T10:00:20.010Z,61.97
2018-05-08T10:01:29.766Z,61.39
2018-05-08T10:02:39.844Z,62.06
2018-05-08T10:03:49.330Z,62.16
2018-05-08T10:04:59.080Z,62.35
2018-05-08T10:06:09.107Z,62.93
2018-05-08T10:07:18.856Z,62.74
2018-05-08T10:08:28.606Z,62.83
2018-05-08T10:09:38.092Z,62.93
2018-05-08T10:10:47.576Z,62.83
2018-05-08T10:11:57.605Z,63.02
2018-05-08T10:13:07.097Z,62.26
2018-05-08T10:14:17.119Z,61.71
2018-05-08T10:15:26.606Z,61.52
2018-05-08T10:16:36.628Z,61.52
2018-05-08T10:17:46.645Z,61.04
2018-05-08T10:18:56.158Z,60.27
2018-05-08T10:20:05.909Z,60.27
2018-05-08T10:21:15.931Z,60.27
2018-05-08T10:22:25.952Z,60.77
2018-05-08T10:23:35.708Z,60.68
2018-05-08T10:24:45.736Z,60
2018-05-08T10:25:55.485Z,60.1
2018-05-08T10:27:05.519Z,58.65
2018-05-08T10:28:15.554Z,58.37
2018-05-08T10:29:25.574Z,58.75
2018-05-08T10:30:35.626Z,59.04
2018-05-08T10:31:44.932Z,59.72
2018-05-08T10:32:55.067Z,58.37
2018-05-08T10:34:04.954Z,58.47
2018-05-08T10:35:14.974Z,57.69
2018-05-08T10:36:24.736Z,58.2
2018-05-08T10:37:34.635Z,57.82
2018-05-08T10:38:44.393Z,58.2
2018-05-08T10:39:54.419Z,58.11
2018-05-08T10:41:04.172Z,57.72
2018-05-08T10:42:14.196Z,56.76
2018-05-08T10:43:24.253Z,56.27
2018-05-08T10:44:34.272Z,56.85
2018-05-08T10:45:44.024Z,55.79
2018-05-08T10:46:54.045Z,54.86
2018-05-08T10:48:03.807Z,54.18
2018-05-08T10:49:13.820Z,54.28
2018-05-08T10:50:23.849Z,54.76
2018-05-08T10:51:33.352Z,53.89
2018-05-08T10:52:43.100Z,54.66
2018-05-08T10:53:52.855Z,54.96
2018-05-08T10:55:02.719Z,54.6
2018-05-08T10:56:12.481Z,53.53
2018-05-08T10:57:22.235Z,54.02
2018-05-08T10:58:32.277Z,52.67
2018-05-08T10:59:41.773Z,52.11
2018-05-08T11:00:51.803Z,52.79
2018-05-08T11:02:01.557Z,52.89
2018-05-08T11:03:11.310Z,52.98
2018-05-08T11:04:21.332Z,51.63
2018-05-08T11:05:31.083Z,51.73
2018-05-08T11:06:40.839Z,51.15
2018-05-08T11:07:50.605Z,50.31
2018-05-08T11:09:00.761Z,49.92
2018-05-08T11:10:10.244Z,50.31
2018-05-08T11:11:20.266Z,48.95
2018-05-08T11:12:30.162Z,50.31
2018-05-08T11:13:40.558Z,49.63
2018-05-08T11:14:50.308Z,48.95
2018-05-08T11:16:00.330Z,49.44
2018-05-08T11:17:09.822Z,49.46
2018-05-08T11:18:19.578Z,50.13
2018-05-08T11:19:29.622Z,50.62
2018-05-08T11:20:39.440Z,50.26
2018-05-08T11:21:48.929Z,49.58
2018-05-08T11:22:58.963Z,48.25
2018-05-08T11:24:08.717Z,47.31
2018-05-08T11:25:18.471Z,47.04
2018-05-08T11:26:28.621Z,45.61
2018-05-08T11:27:38.678Z,43.79
2018-05-08T11:28:48.700Z,43.72
2018-05-08T11:29:58.720Z,43.64
2018-05-08T11:31:08.475Z,42.02
2018-05-08T11:32:17.429Z,42.61
2018-05-08T11:33:27.452Z,41.28
2018-05-08T11:34:37.212Z,39.86
2018-05-08T11:35:47.233Z,38.71
2018-05-08T11:36:57.264Z,38.83
2018-05-08T11:38:06.485Z,36.9
2018-05-08T11:39:16.403Z,37.41
2018-05-08T11:40:26.487Z,35.86
2018-05-08T11:41:35.715Z,36.25
2018-05-08T11:42:45.736Z,36.08
2018-05-08T11:43:55.814Z,33.97
2018-05-08T11:45:05.045Z,33.4
2018-05-08T11:46:15.078Z,33.61
2018-05-08T11:47:24.569Z,34.41
2018-05-08T11:48:34.327Z,31
2018-05-08T11:49:43.823Z,31.31
2018-05-08T11:50:53.857Z,30.62
2018-05-08T11:52:03.424Z,31.11
2018-05-08T11:53:13.285Z,29.75
2018-05-08T11:54:23.319Z,30.16
2018-05-08T11:55:33.085Z,29.68
2018-05-08T11:56:43.123Z,30.93
2018-05-08T11:57:52.908Z,29.77
2018-05-08T11:59:02.954Z,29.18
2018-05-08T12:00:12.718Z,30.15
2018-05-08T12:01:22.215Z,30.23
2018-05-08T12:02:32.345Z,29.35
2018-05-08T12:03:41.971Z,28.09
2018-05-08T12:04:52.008Z,30.22
2018-05-08T12:06:02.049Z,30.04
2018-05-08T12:07:11.877Z,28.28
2018-05-08T12:08:21.981Z,29.25
2018-05-08T12:09:32.015Z,29.66
2018-05-08T12:10:42.096Z,28.99
2018-05-08T12:11:52.133Z,29.38
2018-05-08T12:13:02.172Z,28.59
2018-05-08T12:14:11.668Z,26.96
2018-05-08T12:15:21.167Z,28.81
2018-05-08T12:16:31.209Z,27.35
2018-05-08T12:17:40.998Z,27.17
2018-05-08T12:18:51.035Z,27.26
2018-05-08T12:20:01.086Z,27.95
2018-05-08T12:21:11.135Z,25.81
2018-05-08T12:22:20.906Z,26.59
2018-05-08T12:23:30.408Z,25.12
2018-05-08T12:24:39.914Z,26.21
2018-05-08T12:25:49.681Z,26.01
2018-05-08T12:26:59.454Z,23.77
2018-05-08T12:28:08.955Z,24.92
2018-05-08T12:29:18.725Z,23.05
2018-05-08T12:30:28.759Z,23.7
2018-05-08T12:31:38.655Z,24.66
2018-05-08T12:32:48.427Z,25.15
2018-05-08T12:33:58.464Z,25.82
2018-05-08T12:35:08.507Z,25.62
2018-05-08T12:36:17.773Z,26.49
2018-05-08T12:37:27.240Z,25.89
2018-05-08T12:38:37.270Z,27.13
2018-05-08T12:39:46.774Z,27.61
2018-05-08T12:40:56.543Z,27.69
2018-05-08T12:42:06.798Z,27.79
2018-05-08T12:43:17.011Z,28.05
2018-05-08T12:44:27.045Z,28.92
2018-05-08T12:45:37.381Z,29.39
2018-05-08T12:46:46.878Z,29.96
2018-05-08T12:47:56.104Z,29.85
2018-05-08T12:49:06.152Z,30.61
2018-05-08T12:50:16.185Z,30.8
2018-05-08T12:51:26.320Z,30.59
2018-05-08T12:52:36.104Z,31.65
2018-05-08T12:53:46.146Z,30.85
2018-05-08T12:54:55.911Z,31.05
2018-05-08T12:56:05.579Z,30.47
2018-05-08T12:57:14.892Z,30.38
2018-05-08T12:58:24.924Z,30.77
2018-05-08T12:59:34.964Z,31.26
2018-05-08T13:00:44.481Z,31.81
2018-05-08T13:01:54.249Z,32.37
2018-05-08T13:03:04.138Z,32.1
2018-05-08T13:04:13.909Z,31.91
2018-05-08T13:05:23.716Z,32.18
2018-05-08T13:06:33.965Z,31.41
2018-05-08T13:07:43.731Z,31.41
2018-05-08T13:08:53.497Z,31.79
2018-05-08T13:10:03.282Z,32.76
2018-05-08T13:11:13.047Z,31.6
2018-05-08T13:12:23.079Z,32.86
2018-05-08T13:13:32.918Z,33.83
2018-05-08T13:14:42.950Z,34.01
2018-05-08T13:15:52.705Z,34.09
2018-05-08T13:17:02.468Z,35.73
2018-05-08T13:18:12.304Z,35.05
2018-05-08T13:19:22.296Z,34.19
2018-05-08T13:20:31.787Z,34.94
2018-05-08T13:21:41.815Z,36.1
2018-05-08T13:22:51.586Z,35.81
2018-05-08T13:24:01.620Z,35.8
2018-05-08T13:25:10.844Z,36.57
2018-05-08T13:26:20.890Z,36.66
2018-05-08T13:27:30.658Z,37.05
2018-05-08T13:28:40.152Z,34.44
2018-05-08T13:29:49.910Z,34.54
2018-05-08T13:30:59.699Z,35.31
2018-05-08T13:32:09.288Z,34.05
2018-05-08T13:33:18.783Z,34.04
2018-05-08T13:34:28.808Z,33.75
2018-05-08T13:35:38.845Z,33.65
2018-05-08T13:36:48.696Z,34.92
2018-05-08T13:37:58.460Z,34.65
2018-05-08T13:39:08.563Z,35.33
2018-05-08T13:40:18.645Z,34.09
2018-05-08T13:41:28.408Z,33.34
2018-05-08T13:42:37.362Z,31.6
2018-05-08T13:43:46.872Z,31.29
2018-05-08T13:44:56.650Z,32.75
2018-05-08T13:46:06.147Z,32.47
2018-05-08T13:47:15.641Z,33.42
2018-05-08T13:48:25.405Z,33.41
2018-05-08T13:49:35.443Z,33.99
2018-05-08T13:50:45.217Z,34.57
2018-05-08T13:51:54.706Z,33.6
2018-05-08T13:53:04.197Z,33.41
2018-05-08T13:54:13.418Z,32.94
2018-05-08T13:55:23.444Z,31.49
2018-05-08T13:56:33.205Z,31.2
2018-05-08T13:57:43.050Z,32.36
2018-05-08T13:58:52.811Z,30.54
2018-05-08T14:00:02.839Z,30.82
2018-05-08T14:01:12.595Z,32.09
2018-05-08T14:02:22.365Z,30.26
2018-05-08T14:03:32.397Z,30.74
2018-05-08T14:04:41.888Z,30.18
2018-05-08T14:05:51.920Z,30.57
2018-05-08T14:07:01.870Z,30.37
2018-05-08T14:08:11.364Z,28.81
2018-05-08T14:09:21.402Z,29.98
2018-05-08T14:10:31.427Z,30.45
2018-05-08T14:11:41.470Z,30.84
2018-05-08T14:12:51.239Z,29.88
2018-05-08T14:14:00.798Z,30.94
2018-05-08T14:15:10.024Z,29.77
2018-05-08T14:16:20.117Z,29.98
2018-05-08T14:17:29.611Z,29.69
2018-05-08T14:18:39.470Z,29.79
2018-05-08T14:19:49.493Z,29.5
2018-05-08T14:20:59.252Z,29.41
2018-05-08T14:22:09.014Z,28.83
2018-05-08T14:23:18.787Z,28.72
2018-05-08T14:24:28.553Z,28.74
2018-05-08T14:25:38.580Z,26.21
2018-05-08T14:26:48.609Z,25.63
2018-05-08T14:27:58.634Z,26.5
2018-05-08T14:29:08.400Z,26.21
2018-05-08T14:30:17.941Z,26.5
2018-05-08T14:31:27.547Z,27.56
2018-05-08T14:32:37.931Z,28.05
2018-05-08T14:33:47.971Z,25.24
2018-05-08T14:34:58.013Z,25.43
2018-05-08T14:36:07.779Z,26.79
2018-05-08T14:37:17.813Z,25.36
2018-05-08T14:38:27.651Z,24.78
2018-05-08T14:39:38.032Z,23.71
2018-05-08T14:40:48.069Z,23.03
2018-05-08T14:41:57.911Z,22.94
2018-05-08T14:43:07.670Z,23.42
2018-05-08T14:44:17.705Z,23.52
2018-05-08T14:45:27.197Z,23.33
2018-05-08T14:46:36.961Z,23.62
2018-05-08T14:47:46.729Z,23.05
2018-05-08T14:48:56.762Z,22.56
2018-05-08T14:50:06.259Z,23.04
2018-05-08T14:51:16.292Z,24.21
2018-05-08T14:52:26.320Z,25.38
2018-05-08T14:53:36.077Z,25.29
2018-05-08T14:54:45.845Z,23.35
2018-05-08T14:55:55.876Z,23.16
2018-05-08T14:57:05.648Z,22.09
2018-05-08T14:58:15.154Z,23.45
2018-05-08T14:59:24.920Z,23.55
2018-05-08T15:00:34.696Z,21.99
2018-05-08T15:01:43.919Z,21.5
2018-05-08T15:02:53.959Z,21.32
2018-05-08T15:04:03.997Z,22.2
2018-05-08T15:05:13.578Z,20.73